Wetterdaten: Woche 19.12.05 - 25.12.05 (KW51)
Datum Zeit Temperatur Luftfeuchte Luftdruck Niederschlag Wind Richtung Sonne Solar Taupunkt Windchill
19.12.2005 00:00 -0.9 C 75 % 1027.1 hPa 0.0 l/m 0.1 km/h (0 Bft) N 0.00 h 0 W/m -4.9 C -0.9 C
19.12.2005 01:00 -1.3 C 72 % 1027.1 hPa 0.0 l/m 0.7 km/h (0 Bft) SO 0.00 h 0 W/m -5.6 C -1.4 C
19.12.2005 02:00 -1.6 C 73 % 1027.5 hPa 0.0 l/m 1.0 km/h (0 Bft) S-SO 0.00 h 0 W/m -5.8 C -1.6 C
19.12.2005 03:00 -2.8 C 75 % 1028.1 hPa 0.0 l/m 1.3 km/h (1 Bft) S-SO 0.00 h 0 W/m -6.5 C -3.0 C
19.12.2005 04:00 -3.0 C 77 % 1027.8 hPa 0.0 l/m 7.2 km/h (2 Bft) SO 0.00 h 0 W/m -6.5 C -5.5 C
19.12.2005 05:00 -3.3 C 75 % 1027.4 hPa 0.0 l/m 3.4 km/h (1 Bft) SO 0.00 h 0 W/m -7.0 C -4.2 C
19.12.2005 06:00 -3.5 C 74 % 1027.9 hPa 0.0 l/m 1.7 km/h (1 Bft) SO 0.00 h 0 W/m -7.5 C -3.8 C
19.12.2005 07:00 -3.9 C 74 % 1028.5 hPa 0.0 l/m 7.4 km/h (2 Bft) SO 0.00 h 0 W/m -7.8 C -6.8 C
19.12.2005 08:00 -3.7 C 73 % 1028.5 hPa 0.0 l/m 6.2 km/h (2 Bft) SO 0.00 h 21 W/m -7.9 C -5.7 C
19.12.2005 09:00 -3.3 C 70 % 1028.4 hPa 0.0 l/m 3.7 km/h (1 Bft) SO 0.00 h 56 W/m -8.0 C -4.3 C
19.12.2005 10:00 -2.7 C 69 % 1028.5 hPa 0.0 l/m 3.9 km/h (1 Bft) SO 0.00 h 76 W/m -7.6 C -3.7 C
19.12.2005 11:00 -1.8 C 66 % 1028.2 hPa 0.0 l/m 4.7 km/h (1 Bft) SO 0.00 h 130 W/m -7.3 C -3.2 C
19.12.2005 12:00 -1.3 C 66 % 1028.0 hPa 0.0 l/m 7.0 km/h (2 Bft) SO 0.00 h 109 W/m -6.9 C -3.6 C
19.12.2005 13:00 -1.0 C 66 % 1027.1 hPa 0.0 l/m 7.2 km/h (2 Bft) S 0.00 h 81 W/m -6.6 C -3.5 C
19.12.2005 14:00 -0.7 C 66 % 1027.0 hPa 0.0 l/m 4.5 km/h (1 Bft) SO 0.00 h 65 W/m -6.2 C -1.9 C
19.12.2005 15:00 -0.6 C 67 % 1027.0 hPa 0.0 l/m 5.6 km/h (1 Bft) S 0.00 h 33 W/m -6.0 C -2.3 C
19.12.2005 16:00 -0.6 C 68 % 1027.0 hPa 0.0 l/m 1.1 km/h (1 Bft) S 0.00 h 12 W/m -5.8 C -0.6 C
19.12.2005 17:00 -0.6 C 70 % 1027.0 hPa 0.0 l/m 2.2 km/h (1 Bft) SW 0.00 h 0 W/m -5.4 C -1.2 C
19.12.2005 18:00 -0.9 C 80 % 1027.9 hPa 0.3 l/m 1.0 km/h (0 Bft) W 0.00 h 0 W/m -4.0 C -1.0 C
19.12.2005 19:00 -1.0 C 89 % 1028.1 hPa 0.6 l/m 0.1 km/h (0 Bft) N 0.00 h 0 W/m -2.6 C -1.0 C
19.12.2005 20:00 -0.9 C 89 % 1028.6 hPa 0.0 l/m 1.3 km/h (1 Bft) SO 0.00 h 0 W/m -2.4 C -1.2 C
19.12.2005 21:00 -0.8 C 88 % 1029.2 hPa 0.0 l/m 0.1 km/h (0 Bft) N 0.00 h 0 W/m -2.5 C -0.8 C
19.12.2005 22:00 -0.6 C 87 % 1030.1 hPa 0.0 l/m 0.7 km/h (0 Bft) O-SO 0.00 h 0 W/m -2.5 C -0.8 C
19.12.2005 23:00 -0.7 C 87 % 1030.1 hPa 0.0 l/m 0.3 km/h (0 Bft) SO 0.00 h 0 W/m -2.5 C -0.7 C
20.12.2005 00:00 -1.0 C 86 % 1030.2 hPa 0.0 l/m 3.2 km/h (1 Bft) SO 0.00 h 0 W/m -3.0 C -1.6 C
20.12.2005 01:00 -1.2 C 87 % 1030.7 hPa 0.0 l/m 0.0 km/h (0 Bft) N 0.00 h 0 W/m -3.1 C -1.2 C
20.12.2005 02:00 -1.6 C 87 % 1031.3 hPa 0.0 l/m 1.4 km/h (1 Bft) SO 0.00 h 0 W/m -3.4 C -1.8 C
20.12.2005 03:00 -1.4 C 88 % 1031.5 hPa 0.0 l/m 0.0 km/h (0 Bft) N 0.00 h 0 W/m -3.1 C -1.4 C
20.12.2005 04:00 -1.2 C 88 % 1032.3 hPa 0.0 l/m 0.0 km/h (0 Bft) N 0.00 h 0 W/m -2.9 C -1.2 C
20.12.2005 05:00 -1.3 C 88 % 1032.3 hPa 0.0 l/m 0.0 km/h (0 Bft) N 0.00 h 0 W/m -3.0 C -1.3 C
20.12.2005 06:00 -1.1 C 89 % 1032.3 hPa 0.0 l/m 0.0 km/h (0 Bft) N 0.00 h 0 W/m -2.7 C -1.1 C
20.12.2005 07:00 -0.8 C 90 % 1032.2 hPa 0.0 l/m 0.0 km/h (0 Bft) N 0.00 h 0 W/m -2.3 C -0.8 C
20.12.2005 08:00 -0.6 C 87 % 1032.9 hPa 0.0 l/m 0.1 km/h (0 Bft) N 0.00 h 10 W/m -2.4 C -0.6 C
20.12.2005 09:00 -0.5 C 84 % 1033.2 hPa 0.0 l/m 0.5 km/h (0 Bft) SO 0.00 h 38 W/m -2.9 C -0.7 C
20.12.2005 10:00 -0.6 C 83 % 1033.2 hPa 0.0 l/m 0.1 km/h (0 Bft) O-SO 0.00 h 48 W/m -3.1 C -0.6 C
20.12.2005 11:00 -0.5 C 82 % 1033.2 hPa 0.0 l/m 1.1 km/h (0 Bft) O-SO 0.00 h 75 W/m -3.1 C -0.5 C
20.12.2005 12:00 -0.6 C 81 % 1032.7 hPa 0.0 l/m 3.1 km/h (1 Bft) O-SO 0.00 h 82 W/m -3.4 C -1.6 C
20.12.2005 13:00 -0.6 C 82 % 1032.2 hPa 0.0 l/m 0.7 km/h (0 Bft) O-SO 0.00 h 75 W/m -3.3 C -0.8 C
20.12.2005 14:00 -0.6 C 82 % 1032.2 hPa 0.0 l/m 0.8 km/h (0 Bft) O-SO 0.00 h 63 W/m -3.3 C -0.8 C
20.12.2005 15:00 -0.6 C 82 % 1032.2 hPa 0.0 l/m 0.1 km/h (0 Bft) N 0.00 h 32 W/m -3.3 C -0.6 C
20.12.2005 16:00 -0.7 C 83 % 1032.2 hPa 0.0 l/m 0.8 km/h (0 Bft) W-SW 0.00 h 10 W/m -3.2 C -1.0 C
20.12.2005 17:00 -0.8 C 84 % 1032.2 hPa 0.0 l/m 0.3 km/h (0 Bft) SO 0.00 h 0 W/m -3.2 C -0.9 C
20.12.2005 18:00 -0.8 C 83 % 1032.2 hPa 0.0 l/m 0.3 km/h (0 Bft) SO 0.00 h 0 W/m -3.2 C -0.8 C
20.12.2005 19:00 -0.7 C 83 % 1032.7 hPa 0.0 l/m 0.0 km/h (0 Bft) N 0.00 h 0 W/m -3.2 C -0.7 C
20.12.2005 20:00 -0.9 C 85 % 1033.3 hPa 0.0 l/m 0.0 km/h (0 Bft) N 0.00 h 0 W/m -3.1 C -0.9 C
20.12.2005 21:00 -1.2 C 85 % 1033.3 hPa 0.0 l/m 0.3 km/h (0 Bft) W-NW 0.00 h 0 W/m -3.4 C -1.2 C
20.12.2005 22:00 -1.4 C 84 % 1033.4 hPa 0.0 l/m 0.9 km/h (0 Bft) W-NW 0.00 h 0 W/m -3.8 C -1.7 C
20.12.2005 23:00 -1.4 C 85 % 1033.6 hPa 0.0 l/m 0.1 km/h (0 Bft) N 0.00 h 0 W/m -3.7 C -1.4 C
21.12.2005 00:00 -1.8 C 84 % 1034.5 hPa 0.0 l/m 0.7 km/h (0 Bft) N 0.00 h 0 W/m -4.1 C -1.9 C
21.12.2005 01:00 -1.8 C 85 % 1034.5 hPa 0.0 l/m 0.0 km/h (0 Bft) N 0.00 h 0 W/m -4.0 C -1.8 C
21.12.2005 02:00 -1.8 C 86 % 1034.5 hPa 0.0 l/m 0.1 km/h (0 Bft) N 0.00 h 0 W/m -3.8 C -1.8 C
21.12.2005 03:00 -1.8 C 88 % 1034.5 hPa 0.0 l/m 0.4 km/h (0 Bft) N-NW 0.00 h 0 W/m -3.5 C -1.9 C
21.12.2005 04:00 -1.8 C 88 % 1033.6 hPa 0.0 l/m 1.0 km/h (0 Bft) N-NW 0.00 h 0 W/m -3.4 C -1.8 C
21.12.2005 05:00 -1.7 C 87 % 1033.4 hPa 0.0 l/m 0.1 km/h (0 Bft) N 0.00 h 0 W/m -3.5 C -1.7 C
21.12.2005 06:00 -1.7 C 85 % 1033.8 hPa 0.0 l/m 0.3 km/h (0 Bft) N-NW 0.00 h 0 W/m -4.0 C -1.8 C
21.12.2005 07:00 -1.6 C 85 % 1034.4 hPa 0.0 l/m 0.0 km/h (0 Bft) N 0.00 h 0 W/m -3.9 C -1.6 C
21.12.2005 08:00 -1.5 C 82 % 1034.4 hPa 0.0 l/m 0.1 km/h (0 Bft) N 0.00 h 7 W/m -4.2 C -1.5 C
21.12.2005 09:00 -1.2 C 79 % 1034.4 hPa 0.0 l/m 0.0 km/h (0 Bft) N 0.00 h 28 W/m -4.3 C -1.2 C
21.12.2005 10:00 -0.8 C 77 % 1034.3 hPa 0.0 l/m 0.0 km/h (0 Bft) N 0.00 h 52 W/m -4.3 C -0.8 C
21.12.2005 11:00 -0.3 C 75 % 1034.2 hPa 0.0 l/m 0.0 km/h (0 Bft) N-NO 0.00 h 87 W/m -4.2 C -0.3 C
21.12.2005 12:00 0.1 C 71 % 1033.4 hPa 0.0 l/m 0.2 km/h (0 Bft) NO 0.00 h 98 W/m -4.5 C 0.1 C
21.12.2005 13:00 0.2 C 72 % 1033.1 hPa 0.0 l/m 0.0 km/h (0 Bft) N 0.00 h 76 W/m -4.3 C 0.2 C
21.12.2005 14:00 0.3 C 73 % 1033.1 hPa 0.0 l/m 1.1 km/h (1 Bft) O 0.00 h 46 W/m -4.0 C 0.0 C
21.12.2005 15:00 0.2 C 72 % 1033.1 hPa 0.0 l/m 1.0 km/h (0 Bft) O-SO 0.00 h 23 W/m -4.3 C 0.1 C
21.12.2005 16:00 0.1 C 72 % 1033.7 hPa 0.0 l/m 0.5 km/h (0 Bft) O-SO 0.00 h 7 W/m -4.4 C -0.1 C
21.12.2005 17:00 0.0 C 72 % 1034.2 hPa 0.0 l/m 0.0 km/h (0 Bft) N 0.00 h 0 W/m -4.5 C 0.0 C
21.12.2005 18:00 -0.2 C 72 % 1034.5 hPa 0.0 l/m 0.2 km/h (0 Bft) N 0.00 h 0 W/m -4.7 C -0.2 C
21.12.2005 19:00 -0.2 C 72 % 1035.2 hPa 0.0 l/m 0.2 km/h (0 Bft) O 0.00 h 0 W/m -4.6 C -0.3 C
21.12.2005 20:00 -0.2 C 73 % 1035.3 hPa 0.0 l/m 0.2 km/h (0 Bft) O-NO 0.00 h 0 W/m -4.5 C -0.2 C
21.12.2005 21:00 -0.4 C 75 % 1034.3 hPa 0.0 l/m 1.0 km/h (0 Bft) O 0.00 h 0 W/m -4.3 C -0.6 C
21.12.2005 22:00 -0.5 C 74 % 1033.6 hPa 0.0 l/m 3.1 km/h (1 Bft) O-SO 0.00 h 0 W/m -4.6 C -1.5 C
21.12.2005 23:00 -0.6 C 74 % 1034.1 hPa 0.0 l/m 0.0 km/h (0 Bft) N 0.00 h 0 W/m -4.7 C -0.6 C
22.12.2005 00:00 -0.6 C 74 % 1034.3 hPa 0.0 l/m 0.1 km/h (0 Bft) N 0.00 h 0 W/m -4.6 C -0.6 C
22.12.2005 01:00 -0.6 C 75 % 1034.3 hPa 0.0 l/m 0.1 km/h (0 Bft) N 0.00 h 0 W/m -4.5 C -0.6 C
22.12.2005 02:00 -0.7 C 76 % 1034.8 hPa 0.0 l/m 0.1 km/h (0 Bft) SO 0.00 h 0 W/m -4.5 C -0.7 C
22.12.2005 03:00 -0.8 C 76 % 1035.3 hPa 0.0 l/m 0.9 km/h (0 Bft) O-SO 0.00 h 0 W/m -4.5 C -1.0 C
22.12.2005 04:00 -0.9 C 76 % 1034.3 hPa 0.0 l/m 0.1 km/h (0 Bft) N 0.00 h 0 W/m -4.5 C -0.9 C
22.12.2005 05:00 -1.0 C 77 % 1034.3 hPa 0.0 l/m 0.1 km/h (0 Bft) N 0.00 h 0 W/m -4.5 C -1.0 C
22.12.2005 06:00 -1.0 C 77 % 1034.3 hPa 0.0 l/m 0.1 km/h (0 Bft) N 0.00 h 0 W/m -4.5 C -1.0 C
22.12.2005 07:00 -1.1 C 76 % 1034.5 hPa 0.0 l/m 0.4 km/h (0 Bft) SO 0.00 h 0 W/m -4.8 C -1.1 C
22.12.2005 08:00 -1.2 C 73 % 1035.3 hPa 0.0 l/m 1.2 km/h (1 Bft) SW 0.00 h 10 W/m -5.3 C -1.4 C
22.12.2005 09:00 -1.1 C 71 % 1035.4 hPa 0.0 l/m 2.1 km/h (1 Bft) W 0.00 h 35 W/m -5.8 C -1.6 C
22.12.2005 10:00 -0.8 C 70 % 1035.4 hPa 0.0 l/m 3.2 km/h (1 Bft) W-SW 0.00 h 76 W/m -5.6 C -1.7 C
22.12.2005 11:00 -0.4 C 68 % 1034.9 hPa 0.0 l/m 3.7 km/h (1 Bft) W 0.00 h 109 W/m -5.4 C -1.4 C
22.12.2005 12:00 0.0 C 68 % 1034.5 hPa 0.0 l/m 2.6 km/h (1 Bft) SW 0.00 h 128 W/m -5.1 C -0.7 C
22.12.2005 13:00 0.1 C 67 % 1033.7 hPa 0.0 l/m 2.7 km/h (1 Bft) SO 0.00 h 136 W/m -5.2 C -0.5 C
22.12.2005 14:00 0.3 C 67 % 1033.1 hPa 0.0 l/m 3.3 km/h (1 Bft) SO 0.00 h 93 W/m -5.1 C -0.4 C
22.12.2005 15:00 0.4 C 68 % 1033.1 hPa 0.0 l/m 2.3 km/h (1 Bft) SO 0.00 h 41 W/m -4.9 C -0.3 C
22.12.2005 16:00 0.4 C 69 % 1033.1 hPa 0.0 l/m 0.4 km/h (0 Bft) SO 0.00 h 14 W/m -4.7 C 0.4 C
22.12.2005 17:00 0.3 C 70 % 1033.1 hPa 0.0 l/m 0.7 km/h (0 Bft) O-SO 0.00 h 0 W/m -4.6 C 0.2 C
22.12.2005 18:00 0.2 C 70 % 1033.1 hPa 0.0 l/m 0.7 km/h (0 Bft) SO 0.00 h 0 W/m -4.6 C 0.1 C
22.12.2005 19:00 0.0 C 71 % 1033.2 hPa 0.0 l/m 0.2 km/h (0 Bft) SO 0.00 h 0 W/m -4.6 C 0.0 C
22.12.2005 20:00 -0.1 C 72 % 1033.1 hPa 0.0 l/m 0.0 km/h (0 Bft) N 0.00 h 0 W/m -4.6 C -0.1 C
22.12.2005 21:00 -0.2 C 73 % 1032.1 hPa 0.0 l/m 0.4 km/h (0 Bft) SO 0.00 h 0 W/m -4.5 C -0.2 C
22.12.2005 22:00 -0.2 C 74 % 1032.1 hPa 0.0 l/m 0.0 km/h (0 Bft) N 0.00 h 0 W/m -4.4 C -0.2 C
22.12.2005 23:00 -0.1 C 75 % 1032.1 hPa 0.0 l/m 0.0 km/h (0 Bft) N 0.00 h 0 W/m -3.9 C -0.1 C
23.12.2005 00:00 -0.5 C 78 % 1032.2 hPa 0.0 l/m 0.2 km/h (0 Bft) SO 0.00 h 0 W/m -3.9 C -0.5 C
23.12.2005 01:00 -0.6 C 78 % 1032.1 hPa 0.0 l/m 0.0 km/h (0 Bft) N 0.00 h 0 W/m -3.9 C -0.6 C
23.12.2005 02:00 -0.5 C 79 % 1031.2 hPa 0.0 l/m 0.0 km/h (0 Bft) N 0.00 h 0 W/m -3.8 C -0.5 C
23.12.2005 03:00 -0.4 C 81 % 1031.2 hPa 0.0 l/m 0.0 km/h (0 Bft) N 0.00 h 0 W/m -3.3 C -0.4 C
23.12.2005 04:00 -0.4 C 81 % 1031.1 hPa 0.0 l/m 0.0 km/h (0 Bft) SO 0.00 h 0 W/m -3.2 C -0.4 C
23.12.2005 05:00 -0.2 C 80 % 1030.5 hPa 0.0 l/m 0.0 km/h (0 Bft) N 0.00 h 0 W/m -3.2 C -0.2 C
23.12.2005 06:00 -0.2 C 79 % 1030.1 hPa 0.0 l/m 0.3 km/h (0 Bft) SO 0.00 h 0 W/m -3.3 C -0.2 C
23.12.2005 07:00 -0.0 C 78 % 1030.7 hPa 0.0 l/m 0.0 km/h (0 Bft) S-SO 0.00 h 0 W/m -3.3 C -0.0 C
23.12.2005 08:00 0.1 C 79 % 1031.1 hPa 0.0 l/m 1.3 km/h (1 Bft) SO 0.00 h 7 W/m -3.2 C -0.2 C
23.12.2005 09:00 0.4 C 78 % 1031.0 hPa 0.0 l/m 1.4 km/h (1 Bft) SO 0.00 h 23 W/m -2.9 C 0.3 C
23.12.2005 10:00 0.9 C 75 % 1030.9 hPa 0.0 l/m 0.7 km/h (0 Bft) O-SO 0.00 h 68 W/m -3.0 C 0.7 C
23.12.2005 11:00 1.8 C 71 % 1030.8 hPa 0.0 l/m 1.4 km/h (1 Bft) O-SO 0.00 h 141 W/m -2.9 C 1.6 C
23.12.2005 12:00 2.5 C 69 % 1030.5 hPa 0.0 l/m 3.0 km/h (1 Bft) O-SO 0.00 h 136 W/m -2.6 C 2.0 C
23.12.2005 13:00 2.9 C 67 % 1029.6 hPa 0.0 l/m 1.1 km/h (0 Bft) O-SO 0.00 h 121 W/m -2.6 C 2.8 C
23.12.2005 14:00 2.8 C 69 % 1029.6 hPa 0.0 l/m 1.2 km/h (1 Bft) SO 0.00 h 78 W/m -2.3 C 2.6 C
23.12.2005 15:00 2.7 C 72 % 1029.6 hPa 0.0 l/m 0.3 km/h (0 Bft) W-NW 0.00 h 36 W/m -1.9 C 2.7 C
23.12.2005 16:00 2.4 C 74 % 1029.7 hPa 0.0 l/m 0.0 km/h (0 Bft) N 0.00 h 11 W/m -1.8 C 2.4 C
23.12.2005 17:00 1.1 C 77 % 1028.9 hPa 0.0 l/m 0.0 km/h (0 Bft) N 0.00 h 0 W/m -2.4 C 1.1 C
23.12.2005 18:00 -0.4 C 82 % 1029.0 hPa 0.0 l/m 0.3 km/h (0 Bft) W-NW 0.00 h 0 W/m -3.0 C -0.5 C
23.12.2005 19:00 -1.2 C 86 % 1029.2 hPa 0.0 l/m 0.0 km/h (0 Bft) N 0.00 h 0 W/m -3.2 C -1.2 C
23.12.2005 20:00 -1.4 C 88 % 1029.2 hPa 0.0 l/m 0.0 km/h (0 Bft) N 0.00 h 0 W/m -3.2 C -1.4 C
23.12.2005 21:00 -1.5 C 90 % 1029.2 hPa 0.0 l/m 0.0 km/h (0 Bft) N 0.00 h 0 W/m -2.9 C -1.5 C
23.12.2005 22:00 -1.7 C 92 % 1029.0 hPa 0.0 l/m 0.0 km/h (0 Bft) N 0.00 h 0 W/m -2.9 C -1.7 C
23.12.2005 23:00 -1.5 C 92 % 1028.8 hPa 0.0 l/m 0.0 km/h (0 Bft) W-SW 0.00 h 0 W/m -2.6 C -1.5 C
24.12.2005 00:00 -1.6 C 93 % 1028.2 hPa 0.0 l/m 0.3 km/h (0 Bft) S-SW 0.00 h 0 W/m -2.5 C -1.6 C
24.12.2005 01:00 -1.4 C 94 % 1028.2 hPa 0.0 l/m 0.0 km/h (0 Bft) N 0.00 h 0 W/m -2.2 C -1.4 C
24.12.2005 02:00 -1.2 C 95 % 1028.1 hPa 0.0 l/m 0.0 km/h (0 Bft) N 0.00 h 0 W/m -1.9 C -1.2 C
24.12.2005 03:00 -1.1 C 95 % 1028.1 hPa 0.0 l/m 1.3 km/h (1 Bft) SO 0.00 h 0 W/m -1.8 C -1.2 C
24.12.2005 04:00 -0.9 C 96 % 1028.1 hPa 0.0 l/m 0.0 km/h (0 Bft) N 0.00 h 0 W/m -1.4 C -0.9 C
24.12.2005 05:00 -0.9 C 96 % 1028.1 hPa 0.0 l/m 2.3 km/h (1 Bft) O-SO 0.00 h 0 W/m -1.4 C -1.2 C
24.12.2005 06:00 -0.8 C 97 % 1028.1 hPa 0.0 l/m 0.8 km/h (0 Bft) O-SO 0.00 h 0 W/m -1.3 C -0.9 C
24.12.2005 07:00 -0.9 C 97 % 1028.1 hPa 0.0 l/m 0.1 km/h (0 Bft) N 0.00 h 0 W/m -1.3 C -0.9 C
24.12.2005 08:00 -0.8 C 97 % 1028.1 hPa 0.0 l/m 0.0 km/h (0 Bft) W 0.00 h 6 W/m -1.2 C -0.8 C
24.12.2005 09:00 -0.7 C 98 % 1028.1 hPa 0.0 l/m 0.7 km/h (0 Bft) W-NW 0.00 h 19 W/m -1.0 C -0.8 C
24.12.2005 10:00 -0.5 C 99 % 1028.0 hPa 0.0 l/m 0.0 km/h (0 Bft) N 0.00 h 38 W/m -0.6 C -0.5 C
24.12.2005 11:00 -0.1 C 100 % 1028.0 hPa 0.0 l/m 0.2 km/h (0 Bft) W-NW 0.00 h 48 W/m -0.1 C -0.1 C
24.12.2005 12:00 0.3 C 100 % 1027.1 hPa 0.0 l/m 0.3 km/h (0 Bft) W-NW 0.00 h 68 W/m 0.3 C 0.3 C
24.12.2005 13:00 0.8 C 100 % 1026.5 hPa 0.0 l/m 0.0 km/h (0 Bft) N 0.00 h 63 W/m 0.7 C 0.8 C
24.12.2005 14:00 1.5 C 93 % 1025.7 hPa 0.0 l/m 0.0 km/h (0 Bft) N 0.00 h 75 W/m 0.5 C 1.5 C
24.12.2005 15:00 1.8 C 89 % 1025.6 hPa 0.0 l/m 0.8 km/h (0 Bft) W-NW 0.00 h 46 W/m 0.2 C 1.6 C
24.12.2005 16:00 1.7 C 89 % 1025.6 hPa 0.0 l/m 0.3 km/h (0 Bft) W-NW 0.00 h 13 W/m 0.0 C 1.7 C
24.12.2005 17:00 1.4 C 89 % 1025.7 hPa 0.0 l/m 1.2 km/h (1 Bft) W-NW 0.00 h 0 W/m -0.2 C 1.3 C
24.12.2005 18:00 1.4 C 90 % 1025.7 hPa 0.0 l/m 0.0 km/h (0 Bft) N 0.00 h 0 W/m -0.1 C 1.4 C
24.12.2005 19:00 1.3 C 91 % 1025.7 hPa 0.0 l/m 0.0 km/h (0 Bft) N 0.00 h 0 W/m -0.1 C 1.3 C
24.12.2005 20:00 1.3 C 91 % 1025.7 hPa 0.0 l/m 0.0 km/h (0 Bft) N 0.00 h 0 W/m 0.0 C 1.3 C
24.12.2005 21:00 1.2 C 91 % 1024.8 hPa 0.0 l/m 0.0 km/h (0 Bft) N 0.00 h 0 W/m -0.1 C 1.2 C
24.12.2005 22:00 1.1 C 92 % 1024.7 hPa 0.0 l/m 0.5 km/h (0 Bft) W-NW 0.00 h 0 W/m -0.1 C 1.0 C
24.12.2005 23:00 1.2 C 92 % 1024.7 hPa 0.0 l/m 1.5 km/h (1 Bft) N-NO 0.00 h 0 W/m 0.0 C 0.9 C
25.12.2005 00:00 1.2 C 92 % 1024.6 hPa 0.0 l/m 0.3 km/h (0 Bft) N-NO 0.00 h 0 W/m 0.1 C 1.2 C
25.12.2005 01:00 1.3 C 91 % 1024.6 hPa 0.0 l/m 0.0 km/h (0 Bft) N 0.00 h 0 W/m -0.0 C 1.3 C
25.12.2005 02:00 1.3 C 90 % 1024.6 hPa 0.0 l/m 1.2 km/h (1 Bft) O-SO 0.00 h 0 W/m -0.2 C 1.1 C
25.12.2005 03:00 1.2 C 89 % 1024.6 hPa 0.0 l/m 1.1 km/h (1 Bft) O-SO 0.00 h 0 W/m -0.4 C 1.1 C
25.12.2005 04:00 1.2 C 89 % 1024.7 hPa 0.0 l/m 0.0 km/h (0 Bft) N 0.00 h 0 W/m -0.4 C 1.2 C
25.12.2005 05:00 1.1 C 89 % 1024.7 hPa 0.0 l/m 0.0 km/h (0 Bft) N 0.00 h 0 W/m -0.4 C 1.1 C
25.12.2005 06:00 1.2 C 89 % 1024.7 hPa 0.0 l/m 0.0 km/h (0 Bft) N 0.00 h 0 W/m -0.4 C 1.2 C
25.12.2005 07:00 1.2 C 88 % 1024.7 hPa 0.0 l/m 0.5 km/h (0 Bft) SO 0.00 h 0 W/m -0.6 C 1.2 C
25.12.2005 08:00 1.2 C 88 % 1024.5 hPa 0.0 l/m 0.0 km/h (0 Bft) N 0.00 h 5 W/m -0.6 C 1.2 C
25.12.2005 09:00 1.7 C 85 % 1022.5 hPa 0.0 l/m 0.0 km/h (0 Bft) N 0.00 h 32 W/m -0.5 C 1.7 C
25.12.2005 10:00 2.0 C 81 % 1022.5 hPa 0.0 l/m 0.0 km/h (0 Bft) N 0.00 h 42 W/m -0.9 C 2.0 C
25.12.2005 11:00 2.2 C 79 % 1021.5 hPa 0.0 l/m 0.0 km/h (0 Bft) N 0.00 h 67 W/m -1.0 C 2.2 C
25.12.2005 12:00 2.4 C 78 % 1021.1 hPa 0.0 l/m 0.0 km/h (0 Bft) N 0.00 h 64 W/m -1.0 C 2.4 C
25.12.2005 13:00 2.3 C 84 % 1020.3 hPa 0.0 l/m 0.2 km/h (0 Bft) SO 0.00 h 54 W/m -0.2 C 2.3 C
25.12.2005 14:00 2.2 C 86 % 1020.3 hPa 0.0 l/m 0.6 km/h (0 Bft) SO 0.00 h 42 W/m 0.1 C 2.2 C
25.12.2005 15:00 2.3 C 85 % 1020.3 hPa 0.0 l/m 0.0 km/h (0 Bft) N 0.00 h 29 W/m 0.1 C 2.3 C
25.12.2005 16:00 2.1 C 85 % 1020.4 hPa 0.0 l/m 0.0 km/h (0 Bft) N 0.00 h 9 W/m -0.1 C 2.1 C
25.12.2005 17:00 1.8 C 88 % 1020.4 hPa 0.0 l/m 0.0 km/h (0 Bft) N 0.00 h 0 W/m -0.0 C 1.8 C
25.12.2005 18:00 1.6 C 89 % 1020.4 hPa 0.0 l/m 0.0 km/h (0 Bft) N 0.00 h 0 W/m -0.0 C 1.6 C
25.12.2005 19:00 1.4 C 90 % 1020.3 hPa 0.0 l/m 0.0 km/h (0 Bft) N 0.00 h 0 W/m -0.0 C 1.4 C
25.12.2005 20:00 1.2 C 91 % 1019.4 hPa 0.0 l/m 0.3 km/h (0 Bft) SO 0.00 h 0 W/m -0.1 C 1.2 C
25.12.2005 21:00 1.2 C 92 % 1019.5 hPa 0.0 l/m 0.8 km/h (0 Bft) O-SO 0.00 h 0 W/m -0.0 C 1.0 C
25.12.2005 22:00 1.3 C 90 % 1019.4 hPa 0.0 l/m 0.9 km/h (0 Bft) O-SO 0.00 h 0 W/m -0.1 C 1.0 C
25.12.2005 23:00 1.2 C 88 % 1019.2 hPa 0.0 l/m 0.2 km/h (0 Bft) NO 0.00 h 0 W/m -0.6 C 1.2 C
Min-Datum _ 19.12.05 19.12.05 25.12.05 - 19.12.05 - - - 19.12.05 19.12.05
_ Min-Zeit 07:24 11:26 23:49 - 00:00 - - - 09:32 07:26
Minimum _ -4.0 C 65 % 1018.4 hPa - 0.0 km/h (0 Bft) - - - -8.2 C -9.6 C
Max-Datum _ 23.12.05 24.12.05 22.12.05 19.12.05 19.12.05 - 19.12.05 23.12.05 24.12.05 23.12.05
_ Max-Zeit 14:14 10:58 08:15 19:02 09:30 - 00:00 11:54 14:04 14:14
Maximum _ 3.1 C 100 % 1035.4 hPa 0.6 l/m 17.7 km/h
SO (3 Bft)
- 0.00 h 196 W/m 1.0 C 3.1 C
Durchschnitt _ -0.3 C 81 % 1029.6 hPa #1.0 l/m 0.9 km/h (0 Bft) SO #0 min. 54 W/m -3.1 C -0.5 C
© Kaiko 2005